Flight Track Log - Related Links

Times and Time Zones

All times are in EDT time to prevent confusion due to time zone crossing. See the EJA929 flight status page for this flight to view local times or setup timezone preferences in your user account.


Time Position Orientation Groundspeed Altitude Reporting Facility
EDT Latitude Longitude Course Direction KTS MPH feet Rate Location/Type
Thu 02:50:21 PM 33.3383 -81.9575 61° Northeast 176 203 2,100  Level Atlanta Center
Thu 02:51:21 PM 33.3606 -81.9097 61° Northeast 230 265 5,500 3,450 Climbing Atlanta Center
Thu 02:52:21 PM 33.4400 -81.9253 351° North 215 247 9,000 2,950 Climbing Atlanta Center
Thu 02:53:21 PM 33.5261 -81.9506 346° North 263 303 11,400 2,000 Climbing Atlanta Center
Thu 02:54:21 PM 33.6203 -81.9783 346° North 303 349 13,000 1,550 Climbing Atlanta Center
Thu 02:55:21 PM 33.7189 -82.0058 347° North 341 392 14,500 1,467 Climbing Atlanta Center
Thu 02:57:21 PM 33.9161 -82.0611 347° North 380 437 17,400 1,433 Climbing Atlanta Center
Thu 02:58:21 PM 34.0231 -82.0889 348° North 386 444 18,800 1,450 Climbing Atlanta Center
Thu 02:59:21 PM 34.1300 -82.1214 346° North 386 444 20,300 1,450 Climbing Atlanta Center
Thu 03:00:21 PM 34.2389 -82.1492 348° North 392 451 21,700 1,450 Climbing Atlanta Center
Thu 03:01:21 PM 34.3553 -82.1264 North 403 464 23,200 1,350 Climbing Atlanta Center
Thu 03:02:21 PM 34.4531 -82.0992 13° North 416 479 24,400 1,500 Climbing Atlanta Center
Thu 03:03:21 PM 34.5942 -82.0581 13° North 426 490 26,200 1,650 Climbing Atlanta Center
Thu 03:04:21 PM 34.7019 -82.0050 22° Northeast 426 490 27,700 1,250 Climbing Atlanta Center
Thu 03:05:21 PM 34.8094 -81.9517 22° Northeast 421 484 28,700 1,000 Climbing Atlanta Center
Thu 03:06:21 PM 34.9042 -81.8633 37° Northeast 421 484 29,700 750 Climbing Atlanta Center
Thu 03:07:21 PM 35.0003 -81.7694 39° Northeast 434 499 30,200 600 Climbing Atlanta Center
Thu 03:08:21 PM 35.1142 -81.7106 23° Northeast 439 505 30,900 700 Climbing Atlanta Center
Thu 03:09:21 PM 35.2319 -81.6511 22° Northeast 439 505 31,600 700 Climbing Atlanta Center
Thu 03:10:21 PM 35.3497 -81.5917 22° Northeast 449 517 32,300 750 Climbing Atlanta Center
Thu 03:11:21 PM 35.4839 -81.5264 22° Northeast 449 517 33,100 750 Climbing Atlanta Center
Thu 03:12:21 PM 35.6058 -81.4667 22° Northeast 468 539 33,800 700 Climbing Atlanta Center
Thu 03:13:21 PM 35.7172 -81.4094 23° Northeast 468 539 34,500 700 Climbing Atlanta Center
Thu 03:14:21 PM 35.8411 -81.3464 22° Northeast 468 539 35,200 650 Climbing Atlanta Center
Thu 03:15:21 PM 35.9669 -81.2858 21° North 473 544 35,800 650 Climbing Atlanta Center
Thu 03:16:21 PM 36.0947 -81.2197 23° Northeast 479 551 36,500 750 Climbing Atlanta Center
Thu 03:17:21 PM 36.2247 -81.1561 22° Northeast 496 571 37,300 700 Climbing Atlanta Center
Thu 03:18:21 PM 36.3606 -81.0867 22° Northeast 513 590 37,900 800 Climbing Atlanta Center
Thu 03:19:21 PM 36.4944 -81.0200 22° Northeast 513 590 38,900 1,050 Climbing Atlanta Center
Thu 03:20:21 PM 36.6364 -80.9419 24° Northeast 506 582 40,000 1,000 Climbing Atlanta Center
Thu 03:21:21 PM 36.7683 -80.8747 22° Northeast 511 588 40,900 291 Climbing Atlanta Center
Thu 03:23:47 PM 37.0789 -80.7206 22° Northeast 523 602 41,000 29 Climbing Washington Center
Thu 03:24:47 PM 37.2186 -80.6725 15° North 517 595 41,000  Level Washington Center
Thu 03:25:48 PM 37.3583 -80.6244 15° North 511 588 41,000  Level Washington Center
Thu 03:26:46 PM 37.4958 -80.5811 14° North 506 582 41,000  Level Washington Center
Thu 03:27:47 PM 37.6333 -80.5325 16° North 506 582 41,000  Level Washington Center
Thu 03:28:48 PM 37.7878 -80.4847 14° North 506 582 41,000  Level Washington Center
Thu 03:29:46 PM 37.9253 -80.4358 16° North 506 582 41,000  Level Washington Center
Thu 03:30:46 PM 38.0628 -80.3894 15° North 506 582 41,000  Level Washington Center
Thu 03:31:47 PM 38.2022 -80.3428 15° North 506 582 41,000  Level Washington Center
Thu 03:32:47 PM 38.3292 -80.2953 16° North 513 590 41,000  Level Washington Center
Thu 03:33:48 PM 38.4686 -80.2483 15° North 518 596 41,000  Level Washington Center
Thu 03:34:48 PM 38.6061 -80.2014 15° North 518 596 41,000  Level Washington Center
Thu 03:35:46 PM 38.7478 -80.1517 15° North 518 596 41,000  Level Washington Center
Thu 03:38:17 PM 39.0972 -80.0919 North 498 573 41,000  Level Cleveland Center
Thu 03:39:19 PM 39.2364 -80.0936 359° North 498 573 41,000  Level Cleveland Center
Thu 03:40:21 PM 39.3761 -80.0428 16° North 515 593 41,000 -532 Level Cleveland Center
Thu 03:41:23 PM 39.5439 -79.9872 14° North 520 598 39,900 -1,403 Descending Cleveland Center
Thu 03:42:25 PM 39.6847 -79.9397 15° North 518 596 38,100 -1,403 Descending Cleveland Center
Thu 03:43:27 PM 39.8278 -79.8883 15° North 537 618 37,000 -528 Descending Cleveland Center
Thu 03:44:30 PM 39.9747 -79.8342 16° North 552 635 37,000  Level Cleveland Center
Thu 03:45:32 PM 40.1208 -79.7825 15° North 554 638 37,000 -435 Level Cleveland Center
Thu 03:46:34 PM 40.2942 -79.7206 15° North 548 631 36,100 -1,500 Descending Cleveland Center
Thu 03:47:36 PM 40.4356 -79.6703 15° North 538 619 33,900 -2,226 Descending Cleveland Center
Thu 03:48:38 PM 40.5808 -79.6164 16° North 544 626 31,500 -1,403 Descending Cleveland Center
Thu 03:49:40 PM 40.7286 -79.5633 15° North 553 636 31,000 -1,016 Descending Cleveland Center
Thu 03:50:42 PM 40.9075 -79.4986 15° North 558 642 29,400 -1,500 Descending Cleveland Center
Thu 03:51:44 PM 41.0519 -79.4453 16° North 546 628 27,900 -1,452 Descending Cleveland Center
Thu 03:52:46 PM 41.1961 -79.3917 16° North 542 624 26,400 -1,452 Descending Cleveland Center
Thu 03:53:48 PM 41.3369 -79.3394 16° North 532 612 24,900 -1,152 Descending Cleveland Center
Thu 03:54:51 PM 41.4839 -79.2850 16° North 521 600 24,000 -432 Descending Cleveland Center
Thu 03:55:53 PM 41.6183 -79.2333 16° North 507 583 24,000 -290 Level Cleveland Center
Thu 03:56:55 PM 41.7631 -79.1808 15° North 502 578 23,400 -1,452 Descending Cleveland Center
Thu 03:57:57 PM 41.8978 -79.1339 15° North 500 575 21,000 -2,468 Descending Cleveland Center
Thu 03:58:59 PM 42.0456 -79.0786 16° North 492 566 18,300 -2,516 Descending Cleveland Center
Thu 04:00:01 PM 42.1728 -79.0350 14° North 475 547 15,800 -2,323 Descending Cleveland Center
Thu 04:01:03 PM 42.2939 -78.9836 17° North 459 528 13,500 -2,226 Descending Cleveland Center
Thu 04:02:05 PM 42.4031 -78.9375 17° North 416 479 11,200 -1,355 Descending Cleveland Center
Thu 04:03:07 PM 42.5175 -78.8942 16° North 386 444 10,700 -1,258 Descending Cleveland Center
Thu 04:04:09 PM 42.6136 -78.8933 360° North 325 374 8,600 -1,984 Descending Cleveland Center
Thu 04:05:11 PM 42.7050 -78.8725 10° North 340 391 6,600 -1,694 Descending Cleveland Center
Thu 04:06:13 PM 42.7778 -78.7869 41° Northeast 331 381 5,100 -1,056 Descending Cleveland Center
Thu 04:07:16 PM 42.8453 -78.7042 42° Northeast 319 367 4,400 -1,008 Descending Cleveland Center
Thu 04:08:18 PM 42.9122 -78.6258 41° Northeast 309 356 3,000 -646 Descending Cleveland Center
Thu 04:09:26 PM 42.9833 -78.5500 38° Northeast 254 292 3,000 -328 Level Buffalo TRACON
Thu 04:10:26 PM 43.0333 -78.5667 346° North 219 252 2,300 -368 Descending Buffalo TRACON
Thu 04:11:20 PM 43.0167 -78.6333 251° West 160 184 2,300 -167 Level Buffalo TRACON
Thu 04:12:14 PM 42.9833 -78.6667 216° Southwest 137 158 2,000 -474 Descending Buffalo TRACON
Thu 04:13:14 PM 42.9667 -78.7000 236° Southwest 110 127 1,400 -600 Descending Buffalo TRACON

Login

Don't have an account? Register now (free) for customized features, flight alerts, and more!